createdAt,value
2023-01-26T00:02:32.368Z,98449.63
2023-01-26T00:06:34.416Z,98433.31
2023-01-26T00:10:37.898Z,98432.19
2023-01-26T00:14:52.828Z,98433.78
2023-01-26T00:18:54.856Z,98422.16
2023-01-26T00:22:56.896Z,98431.38
2023-01-26T00:26:59.599Z,98426.66
2023-01-26T00:31:04.395Z,98416.88
2023-01-26T00:35:06.868Z,98413.44
2023-01-26T00:39:12.271Z,98399.75
2023-01-26T00:43:14.369Z,98400.78
2023-01-26T00:47:17.315Z,98404.47
2023-01-26T00:51:19.291Z,98411.06
2023-01-26T00:55:21.509Z,98407.06
2023-01-26T00:59:24.014Z,98398.09
2023-01-26T01:03:26.031Z,98407.06
2023-01-26T01:07:28.431Z,98406.84
2023-01-26T01:11:30.420Z,98407.31
2023-01-26T01:15:32.419Z,98396.75
2023-01-26T01:19:34.458Z,98393.19
2023-01-26T01:23:36.667Z,98384.00
2023-01-26T01:27:38.802Z,98382.75
2023-01-26T01:31:41.670Z,98371.97
2023-01-26T01:35:44.882Z,98377.94
2023-01-26T01:39:46.859Z,98372.19
2023-01-26T01:43:49.497Z,98369.22
2023-01-26T01:47:53.026Z,98366.47
2023-01-26T01:51:55.025Z,98353.28
2023-01-26T01:55:58.802Z,98357.66
2023-01-26T02:00:06.008Z,98352.28
2023-01-26T02:04:15.012Z,98339.44
2023-01-26T02:08:19.241Z,98340.94
2023-01-26T02:12:27.509Z,98340.31
2023-01-26T02:16:29.527Z,98345.03
2023-01-26T02:20:37.789Z,98330.53
2023-01-26T02:24:40.740Z,98344.78
2023-01-26T02:28:45.044Z,98326.06
2023-01-26T02:32:47.429Z,98317.22
2023-01-26T02:37:00.100Z,98331.50
2023-01-26T02:41:04.831Z,98317.63
2023-01-26T02:45:07.257Z,98304.09
2023-01-26T02:49:28.067Z,98296.41
2023-01-26T02:53:30.118Z,98287.69
2023-01-26T02:57:34.479Z,98282.28
2023-01-26T03:01:36.390Z,98280.59
2023-01-26T03:05:40.206Z,98277.97
2023-01-26T03:09:43.736Z,98272.94
2023-01-26T03:13:47.296Z,98265.00
2023-01-26T03:17:49.245Z,98260.97
2023-01-26T03:22:11.027Z,98251.47
2023-01-26T03:26:31.518Z,98248.16
2023-01-26T03:30:33.885Z,98243.91
2023-01-26T03:34:36.996Z,98239.66
2023-01-26T03:38:39.923Z,98235.22
2023-01-26T03:43:00.943Z,98233.03
2023-01-26T03:47:23.879Z,98225.38
2023-01-26T03:51:44.858Z,98232.34
2023-01-26T03:56:05.465Z,98217.91
2023-01-26T04:00:09.686Z,98209.31
2023-01-26T04:04:33.238Z,98197.75
2023-01-26T04:08:36.067Z,98197.53
2023-01-26T04:12:41.367Z,98185.88
2023-01-26T04:17:11.032Z,98179.34
2023-01-26T04:21:33.491Z,98183.34
2023-01-26T04:25:38.837Z,98183.69
2023-01-26T04:29:42.336Z,98170.84
2023-01-26T04:33:44.367Z,98172.56
2023-01-26T04:37:47.513Z,98159.41
2023-01-26T04:41:49.730Z,98156.53
2023-01-26T04:46:00.210Z,98153.34
2023-01-26T04:50:03.933Z,98155.28
2023-01-26T04:54:07.308Z,98155.72
2023-01-26T04:58:13.262Z,98143.03
2023-01-26T05:02:15.302Z,98149.19
2023-01-26T05:06:17.387Z,98139.69
2023-01-26T05:10:21.859Z,98138.22
2023-01-26T05:14:53.435Z,98132.94
2023-01-26T05:19:15.380Z,98128.31
2023-01-26T05:23:47.148Z,98119.63
2023-01-26T05:28:00.338Z,98117.13
2023-01-26T05:32:03.074Z,98119.38
2023-01-26T05:36:08.705Z,98113.91
2023-01-26T05:40:11.513Z,98112.75
2023-01-26T05:44:14.763Z,98121.66
2023-01-26T05:48:20.344Z,98112.28
2023-01-26T05:52:26.137Z,98119.16
2023-01-26T05:56:28.465Z,98116.53
2023-01-26T06:00:35.145Z,98118.00
2023-01-26T06:04:43.446Z,98121.66
2023-01-26T06:08:46.097Z,98118.47
2023-01-26T06:13:08.302Z,98115.28
2023-01-26T06:17:20.567Z,98120.41
2023-01-26T06:21:26.643Z,98115.56
2023-01-26T06:25:29.426Z,98119.41
2023-01-26T06:29:32.558Z,98108.50
2023-01-26T06:33:35.900Z,98110.25
2023-01-26T06:37:38.588Z,98113.53
2023-01-26T06:41:42.540Z,98108.97
2023-01-26T06:45:44.686Z,98112.72
2023-01-26T06:49:46.728Z,98102.94
2023-01-26T06:53:54.950Z,98106.06
2023-01-26T06:58:03.199Z,98109.72
2023-01-26T07:02:27.920Z,98112.13
2023-01-26T07:06:29.998Z,98119.59
2023-01-26T07:10:32.307Z,98122.00
2023-01-26T07:14:35.242Z,98122.56
2023-01-26T07:18:37.483Z,98118.31
2023-01-26T07:22:39.553Z,98110.50
2023-01-26T07:26:41.535Z,98118.41
2023-01-26T07:30:43.752Z,98109.03
2023-01-26T07:34:45.875Z,98109.94
2023-01-26T07:38:48.467Z,98111.06
2023-01-26T07:42:50.871Z,98103.25
2023-01-26T07:46:54.717Z,98106.56
2023-01-26T07:51:01.259Z,98108.97
2023-01-26T07:55:03.265Z,98106.56
2023-01-26T07:59:05.545Z,98110.47
2023-01-26T08:03:07.704Z,98105.13
2023-01-26T08:07:09.764Z,98103.66
2023-01-26T08:11:12.752Z,98100.53
2023-01-26T08:15:14.976Z,98105.44
2023-01-26T08:19:17.038Z,98105.50
2023-01-26T08:23:19.495Z,98109.13
2023-01-26T08:27:22.743Z,98110.09
2023-01-26T08:31:25.611Z,98113.88
2023-01-26T08:35:27.876Z,98118.69
2023-01-26T08:39:29.932Z,98105.78
2023-01-26T08:43:31.985Z,98110.44
2023-01-26T08:47:34.020Z,98118.13
2023-01-26T08:51:36.239Z,98129.66
2023-01-26T08:55:38.209Z,98117.59
2023-01-26T08:59:40.172Z,98124.53
2023-01-26T09:03:43.012Z,98111.88
2023-01-26T09:07:45.010Z,98098.56
2023-01-26T09:11:46.970Z,98102.28
2023-01-26T09:15:49.306Z,98082.88
2023-01-26T09:19:51.399Z,98099.19
2023-01-26T09:23:53.427Z,98093.53
2023-01-26T09:27:55.508Z,98092.00
2023-01-26T09:31:57.689Z,98088.44
2023-01-26T09:36:04.367Z,98089.22
2023-01-26T09:40:06.761Z,98084.88
2023-01-26T09:44:23.947Z,98088.06
2023-01-26T09:48:33.314Z,98087.09
2023-01-26T09:52:51.195Z,98094.91
2023-01-26T09:56:54.731Z,98107.78
2023-01-26T10:01:03.560Z,98112.69
2023-01-26T10:05:13.508Z,98085.03
2023-01-26T10:09:27.006Z,98099.38
2023-01-26T10:13:29.854Z,98083.81
2023-01-26T10:17:34.104Z,98081.22
2023-01-26T10:21:40.165Z,98084.38
2023-01-26T10:25:43.046Z,98075.31
2023-01-26T10:29:45.190Z,98073.53
2023-01-26T10:33:50.429Z,98073.94
2023-01-26T10:37:53.172Z,98059.50
2023-01-26T10:42:00.165Z,98051.78
2023-01-26T10:46:03.304Z,98043.69
2023-01-26T10:50:14.284Z,98052.47
2023-01-26T10:54:20.838Z,98052.34
2023-01-26T10:58:40.929Z,98035.31
2023-01-26T11:02:50.291Z,98042.53
2023-01-26T11:06:52.734Z,98037.41
2023-01-26T11:10:57.336Z,98025.13
2023-01-26T11:15:01.759Z,98017.00
2023-01-26T11:19:11.398Z,98014.56
2023-01-26T11:23:34.032Z,98010.81
2023-01-26T11:27:44.067Z,97999.91
2023-01-26T11:32:13.708Z,97987.84
2023-01-26T11:36:28.270Z,97978.03
2023-01-26T11:40:45.859Z,97985.16
2023-01-26T11:44:47.753Z,97964.25
2023-01-26T11:48:49.911Z,97967.38
2023-01-26T11:52:52.245Z,97963.19
2023-01-26T11:57:04.886Z,97952.88
2023-01-26T12:01:09.891Z,97948.09
2023-01-26T12:05:23.898Z,97934.75
2023-01-26T12:09:38.864Z,97944.28
2023-01-26T12:13:44.015Z,97933.03
2023-01-26T12:18:04.792Z,97916.75
2023-01-26T12:22:24.999Z,97918.94
2023-01-26T12:26:29.358Z,97916.56
2023-01-26T12:30:38.577Z,97909.47
2023-01-26T12:34:40.632Z,97898.25
2023-01-26T12:39:03.774Z,97907.94
2023-01-26T12:43:21.311Z,97907.47
2023-01-26T12:47:43.549Z,97903.00
2023-01-26T12:51:49.272Z,97897.69
2023-01-26T12:55:56.828Z,97891.66
2023-01-26T13:00:18.799Z,97890.28
2023-01-26T13:04:20.903Z,97886.38
2023-01-26T13:08:32.082Z,97887.44
2023-01-26T13:12:49.351Z,97882.69
2023-01-26T13:16:51.399Z,97884.25
2023-01-26T13:20:53.459Z,97893.88
2023-01-26T13:24:59.625Z,97878.72
2023-01-26T13:29:34.153Z,97881.50
2023-01-26T13:33:36.396Z,97879.44
2023-01-26T13:37:58.646Z,97873.31
2023-01-26T13:42:01.403Z,97872.78
2023-01-26T13:46:23.836Z,97874.84
2023-01-26T13:50:30.497Z,97885.69
2023-01-26T13:54:33.054Z,97870.44
2023-01-26T13:58:35.309Z,97864.81
2023-01-26T14:02:38.844Z,97883.81
2023-01-26T14:06:42.637Z,97877.28
2023-01-26T14:10:45.225Z,97881.94
2023-01-26T14:14:48.175Z,97879.78
2023-01-26T14:18:50.331Z,97886.28
2023-01-26T14:23:08.177Z,97879.56
2023-01-26T14:27:29.806Z,97873.88
2023-01-26T14:31:32.415Z,97872.81
2023-01-26T14:35:34.562Z,97872.28
2023-01-26T14:39:36.652Z,97897.00
2023-01-26T14:43:38.598Z,97870.81
2023-01-26T14:47:41.155Z,97868.28
2023-01-26T14:51:47.279Z,97865.16
2023-01-26T14:55:50.333Z,97868.81
2023-01-26T14:59:53.969Z,97868.53
2023-01-26T15:04:15.473Z,97871.63
2023-01-26T15:08:22.284Z,97870.84
2023-01-26T15:12:24.502Z,97878.06
2023-01-26T15:16:26.803Z,97896.72
2023-01-26T15:20:28.796Z,97893.03
2023-01-26T15:24:30.715Z,97889.34
2023-01-26T15:28:32.997Z,97882.41
2023-01-26T15:32:39.811Z,97910.78
2023-01-26T15:36:49.359Z,97898.69
2023-01-26T15:40:51.379Z,97898.63
2023-01-26T15:44:53.504Z,97894.31
2023-01-26T15:48:56.228Z,97904.16
2023-01-26T15:52:58.184Z,97892.06
2023-01-26T15:57:00.665Z,97926.97
2023-01-26T16:01:02.749Z,97924.09
2023-01-26T16:05:12.957Z,97930.53
2023-01-26T16:09:21.762Z,97926.44
2023-01-26T16:13:23.915Z,97915.84
2023-01-26T16:17:25.997Z,97914.47
2023-01-26T16:21:31.589Z,97919.16
2023-01-26T16:25:33.685Z,97923.06
2023-01-26T16:29:35.895Z,97912.88
2023-01-26T16:33:38.011Z,97920.69
2023-01-26T16:37:42.519Z,97913.44
2023-01-26T16:41:44.909Z,97907.81
2023-01-26T16:45:47.010Z,97907.13
2023-01-26T16:49:49.212Z,97910.94
2023-01-26T16:53:51.497Z,97913.69
2023-01-26T16:57:53.653Z,97914.28
2023-01-26T17:01:55.867Z,97905.47
2023-01-26T17:05:57.835Z,97906.53
2023-01-26T17:09:59.891Z,97898.84
2023-01-26T17:14:03.163Z,97908.03
2023-01-26T17:18:05.178Z,97898.19
2023-01-26T17:22:07.788Z,97893.47
2023-01-26T17:26:11.353Z,97889.97
2023-01-26T17:30:13.837Z,97896.50
2023-01-26T17:34:16.790Z,97905.66
2023-01-26T17:38:18.897Z,97898.19
2023-01-26T17:42:20.837Z,97891.56
2023-01-26T17:46:22.901Z,97897.63
2023-01-26T17:50:25.675Z,97893.31
2023-01-26T17:54:27.718Z,97902.22
2023-01-26T17:58:29.767Z,97912.97
2023-01-26T18:02:31.962Z,97914.56
2023-01-26T18:06:34.052Z,97912.97
2023-01-26T18:10:35.999Z,97903.69
2023-01-26T18:14:37.971Z,97908.53
2023-01-26T18:18:40.438Z,97904.19
2023-01-26T18:22:43.896Z,97907.84
2023-01-26T18:26:46.021Z,97920.44
2023-01-26T18:30:48.614Z,97919.88
2023-01-26T18:34:51.756Z,97916.78
2023-01-26T18:38:55.591Z,97924.91
2023-01-26T18:42:58.039Z,97922.06
2023-01-26T18:47:00.579Z,97914.22
2023-01-26T18:51:03.939Z,97915.34
2023-01-26T18:55:06.175Z,97910.00
2023-01-26T18:59:12.604Z,97918.38
2023-01-26T19:03:14.759Z,97908.41
2023-01-26T19:07:16.725Z,97913.75
2023-01-26T19:11:18.662Z,97910.56
2023-01-26T19:15:20.671Z,97908.72
2023-01-26T19:19:22.712Z,97898.44
2023-01-26T19:23:24.793Z,97899.78
2023-01-26T19:27:26.740Z,97897.16
2023-01-26T19:31:29.288Z,97895.75
2023-01-26T19:35:31.517Z,97895.44
2023-01-26T19:39:33.578Z,97896.53
2023-01-26T19:43:36.218Z,97895.50
2023-01-26T19:47:39.067Z,97900.69
2023-01-26T19:51:41.470Z,97910.09
2023-01-26T19:55:43.673Z,97917.28
2023-01-26T19:59:45.897Z,97899.28
2023-01-26T20:03:51.892Z,97903.16
2023-01-26T20:07:54.150Z,97910.28
2023-01-26T20:11:56.349Z,97916.75
2023-01-26T20:15:58.403Z,97911.00
2023-01-26T20:20:00.408Z,97910.91
2023-01-26T20:24:06.749Z,97900.31
2023-01-26T20:28:09.216Z,97914.06
2023-01-26T20:32:11.160Z,97907.03
2023-01-26T20:36:16.559Z,97918.94
2023-01-26T20:40:18.694Z,97919.97
2023-01-26T20:44:20.684Z,97904.38
2023-01-26T20:48:22.756Z,97907.75
2023-01-26T20:52:25.359Z,97902.34
2023-01-26T20:56:27.792Z,97905.19
2023-01-26T21:00:29.791Z,97909.53
2023-01-26T21:04:32.484Z,97903.28
2023-01-26T21:08:36.711Z,97905.09
2023-01-26T21:12:38.749Z,97893.53
2023-01-26T21:16:40.908Z,97900.09
2023-01-26T21:20:42.851Z,97900.88
2023-01-26T21:24:44.893Z,97898.72
2023-01-26T21:28:51.234Z,97878.91
2023-01-26T21:32:53.277Z,97874.25
2023-01-26T21:36:55.347Z,97870.00
2023-01-26T21:40:57.906Z,97869.63
2023-01-26T21:45:18.659Z,97869.47
2023-01-26T21:49:21.271Z,97881.59
2023-01-26T21:53:23.475Z,97875.31
2023-01-26T21:57:44.045Z,97879.19
2023-01-26T22:01:47.319Z,97882.50
2023-01-26T22:05:53.490Z,97876.91
2023-01-26T22:09:56.348Z,97879.78
2023-01-26T22:13:58.664Z,97869.47
2023-01-26T22:18:00.724Z,97879.19
2023-01-26T22:22:03.857Z,97875.97
2023-01-26T22:26:07.194Z,97870.28
2023-01-26T22:30:09.982Z,97866.97
2023-01-26T22:34:12.289Z,97862.97
2023-01-26T22:38:14.367Z,97867.75
2023-01-26T22:42:16.340Z,97855.28
2023-01-26T22:46:19.452Z,97851.94
2023-01-26T22:50:21.604Z,97849.06
2023-01-26T22:54:23.833Z,97843.47
2023-01-26T22:58:25.760Z,97836.00
2023-01-26T23:02:27.882Z,97837.69
2023-01-26T23:06:30.199Z,97831.78
2023-01-26T23:10:32.660Z,97828.78
2023-01-26T23:14:34.754Z,97824.19
2023-01-26T23:18:37.118Z,97813.97
2023-01-26T23:22:39.074Z,97815.50
2023-01-26T23:26:41.178Z,97814.81
2023-01-26T23:30:43.232Z,97815.44
2023-01-26T23:34:45.238Z,97808.50
2023-01-26T23:38:47.405Z,97813.47
2023-01-26T23:43:03.676Z,97800.59
2023-01-26T23:47:09.373Z,97805.16
2023-01-26T23:51:11.805Z,97791.59
2023-01-26T23:55:13.999Z,97797.25
2023-01-26T23:59:15.986Z,97800.44
